sensor_id;sensor_type;location;lat;lon;timestamp;P1;durP1;ratioP1;P2;durP2;ratioP2
6979;SDS011;3530;52.832;10.680;2024-02-21T00:00:59;20.23;;;9.23;;
6979;SDS011;3530;52.832;10.680;2024-02-21T00:03:44;17.33;;;7.30;;
6979;SDS011;3530;52.832;10.680;2024-02-21T00:06:30;15.82;;;8.30;;
6979;SDS011;3530;52.832;10.680;2024-02-21T00:09:16;15.80;;;7.38;;
6979;SDS011;3530;52.832;10.680;2024-02-21T00:12:01;14.27;;;7.05;;
6979;SDS011;3530;52.832;10.680;2024-02-21T00:14:48;17.30;;;8.85;;
6979;SDS011;3530;52.832;10.680;2024-02-21T00:17:34;17.17;;;8.20;;
6979;SDS011;3530;52.832;10.680;2024-02-21T00:20:19;12.93;;;6.53;;
6979;SDS011;3530;52.832;10.680;2024-02-21T00:23:05;17.20;;;8.70;;
6979;SDS011;3530;52.832;10.680;2024-02-21T00:25:51;13.52;;;7.15;;
6979;SDS011;3530;52.832;10.680;2024-02-21T00:28:36;14.95;;;9.10;;
6979;SDS011;3530;52.832;10.680;2024-02-21T00:31:22;9.43;;;5.40;;
6979;SDS011;3530;52.832;10.680;2024-02-21T00:34:08;18.15;;;9.88;;
6979;SDS011;3530;52.832;10.680;2024-02-21T00:36:53;16.20;;;8.35;;
6979;SDS011;3530;52.832;10.680;2024-02-21T00:39:39;17.65;;;8.00;;
6979;SDS011;3530;52.832;10.680;2024-02-21T00:42:24;17.25;;;8.60;;
6979;SDS011;3530;52.832;10.680;2024-02-21T00:45:10;20.02;;;9.13;;
6979;SDS011;3530;52.832;10.680;2024-02-21T00:47:56;11.13;;;7.43;;
6979;SDS011;3530;52.832;10.680;2024-02-21T00:50:41;14.75;;;7.20;;
6979;SDS011;3530;52.832;10.680;2024-02-21T00:53:27;19.35;;;9.68;;
6979;SDS011;3530;52.832;10.680;2024-02-21T00:56:13;16.08;;;9.05;;
6979;SDS011;3530;52.832;10.680;2024-02-21T00:58:58;16.63;;;9.05;;
6979;SDS011;3530;52.832;10.680;2024-02-21T01:01:44;14.35;;;7.90;;
6979;SDS011;3530;52.832;10.680;2024-02-21T01:04:30;21.23;;;10.45;;
6979;SDS011;3530;52.832;10.680;2024-02-21T01:07:15;19.10;;;10.23;;
6979;SDS011;3530;52.832;10.680;2024-02-21T01:10:01;17.13;;;8.63;;
6979;SDS011;3530;52.832;10.680;2024-02-21T01:12:47;17.25;;;9.73;;
6979;SDS011;3530;52.832;10.680;2024-02-21T01:15:32;19.73;;;9.43;;
6979;SDS011;3530;52.832;10.680;2024-02-21T01:18:18;24.83;;;10.00;;
6979;SDS011;3530;52.832;10.680;2024-02-21T01:21:04;51.83;;;27.98;;
6979;SDS011;3530;52.832;10.680;2024-02-21T01:23:52;27.70;;;16.00;;
6979;SDS011;3530;52.832;10.680;2024-02-21T01:26:37;31.27;;;15.40;;
6979;SDS011;3530;52.832;10.680;2024-02-21T01:29:23;25.00;;;12.25;;
6979;SDS011;3530;52.832;10.680;2024-02-21T01:32:09;24.90;;;12.65;;
6979;SDS011;3530;52.832;10.680;2024-02-21T01:34:54;17.35;;;10.60;;
6979;SDS011;3530;52.832;10.680;2024-02-21T01:37:40;16.45;;;10.48;;
6979;SDS011;3530;52.832;10.680;2024-02-21T01:40:26;23.05;;;11.45;;
6979;SDS011;3530;52.832;10.680;2024-02-21T01:43:21;19.40;;;12.27;;
6979;SDS011;3530;52.832;10.680;2024-02-21T01:46:07;17.48;;;9.43;;
6979;SDS011;3530;52.832;10.680;2024-02-21T01:48:53;15.98;;;9.80;;
6979;SDS011;3530;52.832;10.680;2024-02-21T01:51:40;15.65;;;9.27;;
6979;SDS011;3530;52.832;10.680;2024-02-21T01:54:25;19.33;;;9.98;;
6979;SDS011;3530;52.832;10.680;2024-02-21T01:57:13;22.65;;;11.80;;
6979;SDS011;3530;52.832;10.680;2024-02-21T02:00:00;16.08;;;9.50;;
6979;SDS011;3530;52.832;10.680;2024-02-21T02:02:46;19.60;;;10.80;;
6979;SDS011;3530;52.832;10.680;2024-02-21T02:05:32;18.83;;;11.57;;
6979;SDS011;3530;52.832;10.680;2024-02-21T02:08:21;17.92;;;10.95;;
6979;SDS011;3530;52.832;10.680;2024-02-21T02:11:09;18.65;;;11.13;;
6979;SDS011;3530;52.832;10.680;2024-02-21T02:13:55;15.95;;;10.80;;
6979;SDS011;3530;52.832;10.680;2024-02-21T02:16:41;14.35;;;10.38;;
6979;SDS011;3530;52.832;10.680;2024-02-21T02:19:27;20.10;;;11.02;;
6979;SDS011;3530;52.832;10.680;2024-02-21T02:22:14;16.80;;;11.43;;
6979;SDS011;3530;52.832;10.680;2024-02-21T02:25:04;18.88;;;11.20;;
6979;SDS011;3530;52.832;10.680;2024-02-21T02:27:50;21.25;;;11.02;;
6979;SDS011;3530;52.832;10.680;2024-02-21T02:30:36;19.38;;;11.95;;
6979;SDS011;3530;52.832;10.680;2024-02-21T02:33:22;18.33;;;11.07;;
6979;SDS011;3530;52.832;10.680;2024-02-21T02:36:07;19.98;;;12.35;;
6979;SDS011;3530;52.832;10.680;2024-02-21T02:38:53;27.13;;;13.93;;
6979;SDS011;3530;52.832;10.680;2024-02-21T02:41:39;22.50;;;12.25;;
6979;SDS011;3530;52.832;10.680;2024-02-21T02:44:24;21.80;;;12.20;;
6979;SDS011;3530;52.832;10.680;2024-02-21T02:47:10;19.05;;;10.73;;
6979;SDS011;3530;52.832;10.680;2024-02-21T02:49:56;19.70;;;12.48;;
6979;SDS011;3530;52.832;10.680;2024-02-21T02:52:41;25.15;;;13.90;;
6979;SDS011;3530;52.832;10.680;2024-02-21T02:55:27;21.25;;;13.02;;
6979;SDS011;3530;52.832;10.680;2024-02-21T02:58:13;22.08;;;11.85;;
6979;SDS011;3530;52.832;10.680;2024-02-21T03:00:58;16.70;;;9.75;;
6979;SDS011;3530;52.832;10.680;2024-02-21T03:03:44;20.85;;;11.65;;
6979;SDS011;3530;52.832;10.680;2024-02-21T03:06:32;26.55;;;11.60;;
6979;SDS011;3530;52.832;10.680;2024-02-21T03:09:18;18.17;;;11.85;;
6979;SDS011;3530;52.832;10.680;2024-02-21T03:12:04;19.83;;;10.25;;
6979;SDS011;3530;52.832;10.680;2024-02-21T03:14:51;16.52;;;10.45;;
6979;SDS011;3530;52.832;10.680;2024-02-21T03:17:36;14.88;;;9.40;;
6979;SDS011;3530;52.832;10.680;2024-02-21T03:20:22;25.48;;;13.40;;
6979;SDS011;3530;52.832;10.680;2024-02-21T03:23:08;20.73;;;11.45;;
6979;SDS011;3530;52.832;10.680;2024-02-21T03:25:53;18.20;;;11.80;;
6979;SDS011;3530;52.832;10.680;2024-02-21T03:28:39;19.88;;;12.20;;
6979;SDS011;3530;52.832;10.680;2024-02-21T03:31:25;11.82;;;7.25;;
6979;SDS011;3530;52.832;10.680;2024-02-21T03:34:10;21.20;;;11.82;;
6979;SDS011;3530;52.832;10.680;2024-02-21T03:36:56;20.92;;;9.75;;
6979;SDS011;3530;52.832;10.680;2024-02-21T03:39:42;19.52;;;11.73;;
6979;SDS011;3530;52.832;10.680;2024-02-21T03:42:28;18.80;;;10.38;;
6979;SDS011;3530;52.832;10.680;2024-02-21T03:45:15;21.60;;;12.50;;
6979;SDS011;3530;52.832;10.680;2024-02-21T03:48:01;21.48;;;11.27;;
6979;SDS011;3530;52.832;10.680;2024-02-21T03:50:46;23.13;;;12.65;;
6979;SDS011;3530;52.832;10.680;2024-02-21T03:53:32;15.10;;;10.25;;
6979;SDS011;3530;52.832;10.680;2024-02-21T03:56:18;22.65;;;12.20;;
6979;SDS011;3530;52.832;10.680;2024-02-21T03:59:04;17.58;;;10.75;;
6979;SDS011;3530;52.832;10.680;2024-02-21T04:01:52;18.63;;;11.15;;
6979;SDS011;3530;52.832;10.680;2024-02-21T04:04:42;23.90;;;11.80;;
6979;SDS011;3530;52.832;10.680;2024-02-21T04:07:28;19.42;;;11.32;;
6979;SDS011;3530;52.832;10.680;2024-02-21T04:10:14;17.48;;;10.27;;
6979;SDS011;3530;52.832;10.680;2024-02-21T04:12:59;16.83;;;9.77;;
6979;SDS011;3530;52.832;10.680;2024-02-21T04:15:45;20.42;;;10.73;;
6979;SDS011;3530;52.832;10.680;2024-02-21T04:18:31;15.05;;;7.72;;
6979;SDS011;3530;52.832;10.680;2024-02-21T04:21:16;17.77;;;11.23;;
6979;SDS011;3530;52.832;10.680;2024-02-21T04:24:02;18.35;;;12.13;;
6979;SDS011;3530;52.832;10.680;2024-02-21T04:26:50;20.52;;;11.40;;
6979;SDS011;3530;52.832;10.680;2024-02-21T04:29:36;20.70;;;12.07;;
6979;SDS011;3530;52.832;10.680;2024-02-21T04:32:22;23.23;;;12.50;;
6979;SDS011;3530;52.832;10.680;2024-02-21T04:35:07;15.45;;;10.38;;
6979;SDS011;3530;52.832;10.680;2024-02-21T04:37:53;17.08;;;10.95;;
6979;SDS011;3530;52.832;10.680;2024-02-21T04:40:39;14.43;;;10.15;;
6979;SDS011;3530;52.832;10.680;2024-02-21T04:43:25;20.60;;;11.93;;
6979;SDS011;3530;52.832;10.680;2024-02-21T04:46:10;12.13;;;8.57;;
6979;SDS011;3530;52.832;10.680;2024-02-21T04:48:56;18.08;;;10.57;;
6979;SDS011;3530;52.832;10.680;2024-02-21T04:51:42;15.57;;;11.25;;
6979;SDS011;3530;52.832;10.680;2024-02-21T04:54:27;18.80;;;10.55;;
6979;SDS011;3530;52.832;10.680;2024-02-21T04:57:13;14.27;;;9.73;;
6979;SDS011;3530;52.832;10.680;2024-02-21T05:00:02;15.20;;;10.35;;
6979;SDS011;3530;52.832;10.680;2024-02-21T05:02:49;17.77;;;10.60;;
6979;SDS011;3530;52.832;10.680;2024-02-21T05:05:34;19.90;;;11.27;;
6979;SDS011;3530;52.832;10.680;2024-02-21T05:08:20;19.25;;;11.25;;
6979;SDS011;3530;52.832;10.680;2024-02-21T05:11:06;13.75;;;9.57;;
6979;SDS011;3530;52.832;10.680;2024-02-21T05:13:52;15.63;;;10.60;;
6979;SDS011;3530;52.832;10.680;2024-02-21T05:16:38;18.27;;;10.38;;
6979;SDS011;3530;52.832;10.680;2024-02-21T05:19:25;18.80;;;11.00;;
6979;SDS011;3530;52.832;10.680;2024-02-21T05:22:10;20.65;;;13.20;;
6979;SDS011;3530;52.832;10.680;2024-02-21T05:24:56;18.35;;;10.30;;
6979;SDS011;3530;52.832;10.680;2024-02-21T05:27:42;20.98;;;11.95;;
6979;SDS011;3530;52.832;10.680;2024-02-21T05:30:27;15.77;;;9.80;;
6979;SDS011;3530;52.832;10.680;2024-02-21T05:33:13;18.83;;;11.68;;
6979;SDS011;3530;52.832;10.680;2024-02-21T05:36:06;17.80;;;10.25;;
6979;SDS011;3530;52.832;10.680;2024-02-21T05:38:52;18.20;;;8.95;;
6979;SDS011;3530;52.832;10.680;2024-02-21T05:41:37;18.73;;;10.75;;
6979;SDS011;3530;52.832;10.680;2024-02-21T05:44:23;14.40;;;10.40;;
6979;SDS011;3530;52.832;10.680;2024-02-21T05:47:09;23.23;;;13.77;;
6979;SDS011;3530;52.832;10.680;2024-02-21T05:49:55;18.10;;;10.40;;
6979;SDS011;3530;52.832;10.680;2024-02-21T05:52:41;20.42;;;11.25;;
6979;SDS011;3530;52.832;10.680;2024-02-21T05:55:27;18.02;;;11.25;;
6979;SDS011;3530;52.832;10.680;2024-02-21T05:58:13;18.30;;;8.60;;
6979;SDS011;3530;52.832;10.680;2024-02-21T06:00:59;20.58;;;12.32;;
6979;SDS011;3530;52.832;10.680;2024-02-21T06:03:44;16.60;;;11.27;;
6979;SDS011;3530;52.832;10.680;2024-02-21T06:06:30;22.05;;;11.77;;
6979;SDS011;3530;52.832;10.680;2024-02-21T06:09:16;22.85;;;12.90;;
6979;SDS011;3530;52.832;10.680;2024-02-21T06:12:01;16.48;;;10.82;;
6979;SDS011;3530;52.832;10.680;2024-02-21T06:14:47;19.63;;;10.55;;
6979;SDS011;3530;52.832;10.680;2024-02-21T06:17:33;15.82;;;10.48;;
6979;SDS011;3530;52.832;10.680;2024-02-21T06:20:18;22.23;;;12.93;;
6979;SDS011;3530;52.832;10.680;2024-02-21T06:23:04;16.80;;;10.93;;
6979;SDS011;3530;52.832;10.680;2024-02-21T06:25:50;24.17;;;12.15;;
6979;SDS011;3530;52.832;10.680;2024-02-21T06:28:35;21.27;;;12.88;;
6979;SDS011;3530;52.832;10.680;2024-02-21T06:31:21;23.10;;;13.88;;
6979;SDS011;3530;52.832;10.680;2024-02-21T06:34:07;28.35;;;15.00;;
6979;SDS011;3530;52.832;10.680;2024-02-21T06:36:52;22.33;;;13.27;;
6979;SDS011;3530;52.832;10.680;2024-02-21T06:39:38;24.50;;;14.25;;
6979;SDS011;3530;52.832;10.680;2024-02-21T06:42:26;31.60;;;13.68;;
6979;SDS011;3530;52.832;10.680;2024-02-21T06:45:11;17.48;;;12.40;;
6979;SDS011;3530;52.832;10.680;2024-02-21T06:47:57;21.85;;;15.38;;
6979;SDS011;3530;52.832;10.680;2024-02-21T06:50:43;23.50;;;13.13;;
6979;SDS011;3530;52.832;10.680;2024-02-21T06:53:28;21.52;;;13.23;;
6979;SDS011;3530;52.832;10.680;2024-02-21T06:56:14;20.35;;;12.27;;
6979;SDS011;3530;52.832;10.680;2024-02-21T06:59:00;17.35;;;11.68;;
6979;SDS011;3530;52.832;10.680;2024-02-21T07:01:46;15.45;;;11.23;;
6979;SDS011;3530;52.832;10.680;2024-02-21T07:04:33;18.25;;;11.27;;
6979;SDS011;3530;52.832;10.680;2024-02-21T07:07:19;21.15;;;13.63;;
6979;SDS011;3530;52.832;10.680;2024-02-21T07:10:05;16.00;;;11.48;;
6979;SDS011;3530;52.832;10.680;2024-02-21T07:12:50;19.95;;;10.80;;
6979;SDS011;3530;52.832;10.680;2024-02-21T07:15:38;13.05;;;10.25;;
6979;SDS011;3530;52.832;10.680;2024-02-21T07:18:23;18.90;;;12.10;;
6979;SDS011;3530;52.832;10.680;2024-02-21T07:21:10;15.98;;;10.15;;
6979;SDS011;3530;52.832;10.680;2024-02-21T07:23:56;17.70;;;11.85;;
6979;SDS011;3530;52.832;10.680;2024-02-21T07:26:42;16.90;;;11.88;;
6979;SDS011;3530;52.832;10.680;2024-02-21T07:29:28;15.00;;;9.45;;
6979;SDS011;3530;52.832;10.680;2024-02-21T07:32:14;15.43;;;11.20;;
6979;SDS011;3530;52.832;10.680;2024-02-21T07:34:59;16.55;;;10.57;;
6979;SDS011;3530;52.832;10.680;2024-02-21T07:37:45;16.27;;;10.05;;
6979;SDS011;3530;52.832;10.680;2024-02-21T07:40:31;14.25;;;10.30;;
6979;SDS011;3530;52.832;10.680;2024-02-21T07:43:16;20.38;;;12.98;;
6979;SDS011;3530;52.832;10.680;2024-02-21T07:46:02;13.07;;;9.55;;
6979;SDS011;3530;52.832;10.680;2024-02-21T07:48:48;17.85;;;11.27;;
6979;SDS011;3530;52.832;10.680;2024-02-21T07:51:34;16.58;;;10.93;;
6979;SDS011;3530;52.832;10.680;2024-02-21T07:54:21;16.58;;;10.25;;
6979;SDS011;3530;52.832;10.680;2024-02-21T07:57:07;17.35;;;9.98;;
6979;SDS011;3530;52.832;10.680;2024-02-21T07:59:53;11.32;;;7.88;;
6979;SDS011;3530;52.832;10.680;2024-02-21T08:02:38;15.50;;;10.75;;
6979;SDS011;3530;52.832;10.680;2024-02-21T08:05:24;19.50;;;12.50;;
6979;SDS011;3530;52.832;10.680;2024-02-21T08:08:10;17.33;;;10.73;;
6979;SDS011;3530;52.832;10.680;2024-02-21T08:10:55;17.95;;;11.20;;
6979;SDS011;3530;52.832;10.680;2024-02-21T08:13:41;25.10;;;13.57;;
6979;SDS011;3530;52.832;10.680;2024-02-21T08:16:27;22.30;;;12.95;;
6979;SDS011;3530;52.832;10.680;2024-02-21T08:19:12;17.02;;;10.77;;
6979;SDS011;3530;52.832;10.680;2024-02-21T08:21:58;19.92;;;11.18;;
6979;SDS011;3530;52.832;10.680;2024-02-21T08:24:43;19.38;;;12.15;;
6979;SDS011;3530;52.832;10.680;2024-02-21T08:27:29;19.05;;;13.00;;
6979;SDS011;3530;52.832;10.680;2024-02-21T08:30:15;20.27;;;12.23;;
6979;SDS011;3530;52.832;10.680;2024-02-21T08:33:01;17.35;;;11.52;;
6979;SDS011;3530;52.832;10.680;2024-02-21T08:35:46;19.48;;;12.48;;
6979;SDS011;3530;52.832;10.680;2024-02-21T08:38:32;16.85;;;11.57;;
6979;SDS011;3530;52.832;10.680;2024-02-21T08:41:18;19.02;;;12.38;;
6979;SDS011;3530;52.832;10.680;2024-02-21T08:44:04;23.45;;;12.38;;
6979;SDS011;3530;52.832;10.680;2024-02-21T08:46:50;15.55;;;11.10;;
6979;SDS011;3530;52.832;10.680;2024-02-21T08:49:35;17.30;;;12.75;;
6979;SDS011;3530;52.832;10.680;2024-02-21T08:52:22;22.25;;;11.48;;
6979;SDS011;3530;52.832;10.680;2024-02-21T08:55:08;16.70;;;10.60;;
6979;SDS011;3530;52.832;10.680;2024-02-21T08:57:54;15.70;;;11.18;;
6979;SDS011;3530;52.832;10.680;2024-02-21T09:00:39;17.58;;;10.63;;
6979;SDS011;3530;52.832;10.680;2024-02-21T09:03:25;15.57;;;10.38;;
6979;SDS011;3530;52.832;10.680;2024-02-21T09:06:10;19.60;;;11.00;;
6979;SDS011;3530;52.832;10.680;2024-02-21T09:08:58;15.18;;;10.38;;
6979;SDS011;3530;52.832;10.680;2024-02-21T09:11:44;14.77;;;10.90;;
6979;SDS011;3530;52.832;10.680;2024-02-21T09:14:29;9.30;;;7.30;;
6979;SDS011;3530;52.832;10.680;2024-02-21T09:17:15;16.55;;;11.55;;
6979;SDS011;3530;52.832;10.680;2024-02-21T09:20:02;14.38;;;10.65;;
6979;SDS011;3530;52.832;10.680;2024-02-21T09:22:48;17.05;;;11.02;;
6979;SDS011;3530;52.832;10.680;2024-02-21T09:25:34;20.90;;;10.80;;
6979;SDS011;3530;52.832;10.680;2024-02-21T09:28:20;17.38;;;12.70;;
6979;SDS011;3530;52.832;10.680;2024-02-21T09:31:05;17.92;;;11.95;;
6979;SDS011;3530;52.832;10.680;2024-02-21T09:33:51;15.68;;;9.70;;
6979;SDS011;3530;52.832;10.680;2024-02-21T09:36:37;16.40;;;10.35;;
6979;SDS011;3530;52.832;10.680;2024-02-21T09:39:23;19.98;;;13.15;;
6979;SDS011;3530;52.832;10.680;2024-02-21T09:42:10;19.95;;;12.50;;
6979;SDS011;3530;52.832;10.680;2024-02-21T09:44:56;17.92;;;11.77;;
6979;SDS011;3530;52.832;10.680;2024-02-21T09:50:51;13.40;;;9.95;;
6979;SDS011;3530;52.832;10.680;2024-02-21T09:53:39;20.55;;;12.88;;
6979;SDS011;3530;52.832;10.680;2024-02-21T09:56:25;20.67;;;13.48;;
6979;SDS011;3530;52.832;10.680;2024-02-21T09:59:11;19.58;;;13.80;;
6979;SDS011;3530;52.832;10.680;2024-02-21T10:01:57;20.73;;;12.38;;
6979;SDS011;3530;52.832;10.680;2024-02-21T10:04:45;20.00;;;12.32;;
6979;SDS011;3530;52.832;10.680;2024-02-21T10:07:31;17.60;;;10.77;;
6979;SDS011;3530;52.832;10.680;2024-02-21T10:10:17;23.50;;;14.05;;
6979;SDS011;3530;52.832;10.680;2024-02-21T10:13:06;18.48;;;13.10;;
6979;SDS011;3530;52.832;10.680;2024-02-21T10:16:03;17.52;;;11.45;;
6979;SDS011;3530;52.832;10.680;2024-02-21T10:18:53;17.80;;;10.90;;
6979;SDS011;3530;52.832;10.680;2024-02-21T10:21:39;22.67;;;12.65;;
6979;SDS011;3530;52.832;10.680;2024-02-21T10:24:28;21.50;;;13.70;;
6979;SDS011;3530;52.832;10.680;2024-02-21T10:27:13;15.30;;;10.27;;
6979;SDS011;3530;52.832;10.680;2024-02-21T10:29:59;19.23;;;12.13;;
6979;SDS011;3530;52.832;10.680;2024-02-21T10:32:48;17.73;;;11.23;;
6979;SDS011;3530;52.832;10.680;2024-02-21T10:35:35;13.70;;;9.80;;
6979;SDS011;3530;52.832;10.680;2024-02-21T10:38:21;19.63;;;11.40;;
6979;SDS011;3530;52.832;10.680;2024-02-21T10:41:06;20.60;;;11.27;;
6979;SDS011;3530;52.832;10.680;2024-02-21T10:43:53;17.15;;;11.07;;
6979;SDS011;3530;52.832;10.680;2024-02-21T10:46:39;16.23;;;11.05;;
6979;SDS011;3530;52.832;10.680;2024-02-21T10:49:26;18.20;;;11.38;;
6979;SDS011;3530;52.832;10.680;2024-02-21T10:55:25;18.98;;;10.98;;
6979;SDS011;3530;52.832;10.680;2024-02-21T10:58:17;21.65;;;12.05;;
6979;SDS011;3530;52.832;10.680;2024-02-21T11:01:03;19.80;;;11.18;;
6979;SDS011;3530;52.832;10.680;2024-02-21T11:03:51;24.02;;;12.23;;
6979;SDS011;3530;52.832;10.680;2024-02-21T11:06:39;19.85;;;11.00;;
6979;SDS011;3530;52.832;10.680;2024-02-21T11:09:32;14.50;;;11.00;;
6979;SDS011;3530;52.832;10.680;2024-02-21T11:12:21;15.48;;;10.57;;
6979;SDS011;3530;52.832;10.680;2024-02-21T11:15:07;16.15;;;10.98;;
6979;SDS011;3530;52.832;10.680;2024-02-21T11:17:54;18.35;;;10.48;;
6979;SDS011;3530;52.832;10.680;2024-02-21T11:20:49;22.55;;;13.23;;
6979;SDS011;3530;52.832;10.680;2024-02-21T11:23:36;23.30;;;11.13;;
6979;SDS011;3530;52.832;10.680;2024-02-21T11:26:21;11.43;;;9.77;;
6979;SDS011;3530;52.832;10.680;2024-02-21T11:29:07;15.70;;;10.02;;
6979;SDS011;3530;52.832;10.680;2024-02-21T11:31:55;12.35;;;8.93;;
6979;SDS011;3530;52.832;10.680;2024-02-21T11:34:41;16.80;;;9.93;;
6979;SDS011;3530;52.832;10.680;2024-02-21T11:37:27;8.23;;;5.35;;
6979;SDS011;3530;52.832;10.680;2024-02-21T11:40:13;11.32;;;6.82;;
6979;SDS011;3530;52.832;10.680;2024-02-21T11:42:59;17.58;;;8.13;;
6979;SDS011;3530;52.832;10.680;2024-02-21T11:45:45;15.50;;;8.63;;
6979;SDS011;3530;52.832;10.680;2024-02-21T11:48:31;11.70;;;8.27;;
6979;SDS011;3530;52.832;10.680;2024-02-21T11:51:26;16.13;;;8.10;;
6979;SDS011;3530;52.832;10.680;2024-02-21T11:54:12;13.48;;;8.32;;
6979;SDS011;3530;52.832;10.680;2024-02-21T11:57:01;11.32;;;7.95;;
6979;SDS011;3530;52.832;10.680;2024-02-21T11:59:47;9.77;;;6.60;;
6979;SDS011;3530;52.832;10.680;2024-02-21T12:02:34;9.93;;;6.55;;
6979;SDS011;3530;52.832;10.680;2024-02-21T12:05:20;13.55;;;6.18;;
6979;SDS011;3530;52.832;10.680;2024-02-21T12:08:05;7.93;;;6.00;;
6979;SDS011;3530;52.832;10.680;2024-02-21T12:10:51;9.93;;;6.80;;
6979;SDS011;3530;52.832;10.680;2024-02-21T12:13:37;8.98;;;6.28;;
6979;SDS011;3530;52.832;10.680;2024-02-21T12:16:22;8.65;;;5.00;;
6979;SDS011;3530;52.832;10.680;2024-02-21T12:19:08;5.05;;;4.50;;
6979;SDS011;3530;52.832;10.680;2024-02-21T12:21:54;5.78;;;4.88;;
6979;SDS011;3530;52.832;10.680;2024-02-21T12:24:40;5.45;;;4.93;;
6979;SDS011;3530;52.832;10.680;2024-02-21T12:27:32;6.25;;;3.72;;
6979;SDS011;3530;52.832;10.680;2024-02-21T12:30:18;4.90;;;3.60;;
6979;SDS011;3530;52.832;10.680;2024-02-21T12:33:04;7.30;;;4.95;;
6979;SDS011;3530;52.832;10.680;2024-02-21T12:35:50;7.05;;;5.18;;
6979;SDS011;3530;52.832;10.680;2024-02-21T12:38:36;5.82;;;5.20;;
6979;SDS011;3530;52.832;10.680;2024-02-21T12:41:22;6.13;;;5.43;;
6979;SDS011;3530;52.832;10.680;2024-02-21T12:44:07;13.52;;;6.47;;
6979;SDS011;3530;52.832;10.680;2024-02-21T12:46:53;6.35;;;5.13;;
6979;SDS011;3530;52.832;10.680;2024-02-21T12:49:39;10.43;;;5.60;;
6979;SDS011;3530;52.832;10.680;2024-02-21T12:52:25;10.55;;;5.20;;
6979;SDS011;3530;52.832;10.680;2024-02-21T12:55:10;6.53;;;4.20;;
6979;SDS011;3530;52.832;10.680;2024-02-21T12:58:00;6.85;;;5.07;;
6979;SDS011;3530;52.832;10.680;2024-02-21T13:00:48;6.57;;;4.45;;
6979;SDS011;3530;52.832;10.680;2024-02-21T13:03:34;6.78;;;4.60;;
6979;SDS011;3530;52.832;10.680;2024-02-21T13:06:20;12.93;;;5.13;;
6979;SDS011;3530;52.832;10.680;2024-02-21T13:09:05;8.82;;;5.03;;
6979;SDS011;3530;52.832;10.680;2024-02-21T13:11:53;5.30;;;3.95;;
6979;SDS011;3530;52.832;10.680;2024-02-21T13:14:39;5.38;;;3.97;;
6979;SDS011;3530;52.832;10.680;2024-02-21T13:17:24;9.48;;;5.32;;
6979;SDS011;3530;52.832;10.680;2024-02-21T13:20:15;8.55;;;4.88;;
6979;SDS011;3530;52.832;10.680;2024-02-21T13:23:01;8.57;;;4.47;;
6979;SDS011;3530;52.832;10.680;2024-02-21T13:25:47;14.45;;;7.65;;
6979;SDS011;3530;52.832;10.680;2024-02-21T13:28:32;11.23;;;7.35;;
6979;SDS011;3530;52.832;10.680;2024-02-21T13:31:18;16.80;;;8.90;;
6979;SDS011;3530;52.832;10.680;2024-02-21T13:34:04;16.05;;;8.40;;
6979;SDS011;3530;52.832;10.680;2024-02-21T13:36:49;16.67;;;9.75;;
6979;SDS011;3530;52.832;10.680;2024-02-21T13:39:35;14.15;;;9.50;;
6979;SDS011;3530;52.832;10.680;2024-02-21T13:42:21;11.77;;;8.00;;
6979;SDS011;3530;52.832;10.680;2024-02-21T13:45:07;11.88;;;7.40;;
6979;SDS011;3530;52.832;10.680;2024-02-21T13:47:53;8.27;;;6.65;;
6979;SDS011;3530;52.832;10.680;2024-02-21T13:50:39;10.35;;;7.25;;
6979;SDS011;3530;52.832;10.680;2024-02-21T13:53:28;9.32;;;5.80;;
6979;SDS011;3530;52.832;10.680;2024-02-21T13:56:14;11.02;;;7.30;;
6979;SDS011;3530;52.832;10.680;2024-02-21T13:59:00;12.00;;;7.25;;
6979;SDS011;3530;52.832;10.680;2024-02-21T14:01:46;12.75;;;7.88;;
6979;SDS011;3530;52.832;10.680;2024-02-21T14:04:31;10.02;;;7.38;;
6979;SDS011;3530;52.832;10.680;2024-02-21T14:07:17;10.57;;;5.88;;
6979;SDS011;3530;52.832;10.680;2024-02-21T14:10:03;8.07;;;5.20;;
6979;SDS011;3530;52.832;10.680;2024-02-21T14:12:49;6.57;;;5.65;;
6979;SDS011;3530;52.832;10.680;2024-02-21T14:15:35;7.63;;;5.88;;
6979;SDS011;3530;52.832;10.680;2024-02-21T14:18:22;5.90;;;4.68;;
6979;SDS011;3530;52.832;10.680;2024-02-21T14:21:08;9.52;;;6.05;;
6979;SDS011;3530;52.832;10.680;2024-02-21T14:23:57;7.57;;;4.35;;
6979;SDS011;3530;52.832;10.680;2024-02-21T14:26:43;5.65;;;4.15;;
6979;SDS011;3530;52.832;10.680;2024-02-21T14:29:29;6.15;;;4.10;;
6979;SDS011;3530;52.832;10.680;2024-02-21T14:32:14;8.60;;;5.88;;
6979;SDS011;3530;52.832;10.680;2024-02-21T14:35:00;12.85;;;7.93;;
6979;SDS011;3530;52.832;10.680;2024-02-21T14:37:46;6.25;;;4.50;;
6979;SDS011;3530;52.832;10.680;2024-02-21T14:40:34;4.85;;;4.03;;
6979;SDS011;3530;52.832;10.680;2024-02-21T14:43:19;5.70;;;4.55;;
6979;SDS011;3530;52.832;10.680;2024-02-21T14:46:08;7.13;;;4.22;;
6979;SDS011;3530;52.832;10.680;2024-02-21T14:48:57;8.05;;;5.60;;
6979;SDS011;3530;52.832;10.680;2024-02-21T14:51:42;11.57;;;7.60;;
6979;SDS011;3530;52.832;10.680;2024-02-21T14:54:28;11.43;;;7.47;;
6979;SDS011;3530;52.832;10.680;2024-02-21T14:57:14;5.68;;;3.92;;
6979;SDS011;3530;52.832;10.680;2024-02-21T14:59:59;8.02;;;5.05;;
6979;SDS011;3530;52.832;10.680;2024-02-21T15:02:45;7.97;;;4.70;;
6979;SDS011;3530;52.832;10.680;2024-02-21T15:05:31;5.03;;;3.95;;
6979;SDS011;3530;52.832;10.680;2024-02-21T15:08:19;9.10;;;4.70;;
6979;SDS011;3530;52.832;10.680;2024-02-21T15:11:04;8.73;;;3.90;;
6979;SDS011;3530;52.832;10.680;2024-02-21T15:13:51;5.97;;;4.53;;
6979;SDS011;3530;52.832;10.680;2024-02-21T15:16:36;4.43;;;3.30;;
6979;SDS011;3530;52.832;10.680;2024-02-21T15:19:23;5.05;;;3.83;;
6979;SDS011;3530;52.832;10.680;2024-02-21T15:22:11;5.38;;;3.67;;
6979;SDS011;3530;52.832;10.680;2024-02-21T15:24:57;4.63;;;3.80;;
6979;SDS011;3530;52.832;10.680;2024-02-21T15:27:43;4.00;;;3.67;;
6979;SDS011;3530;52.832;10.680;2024-02-21T15:30:29;4.03;;;3.60;;
6979;SDS011;3530;52.832;10.680;2024-02-21T15:33:18;5.07;;;4.15;;
6979;SDS011;3530;52.832;10.680;2024-02-21T15:36:04;5.20;;;4.10;;
6979;SDS011;3530;52.832;10.680;2024-02-21T15:38:49;7.00;;;4.10;;
6979;SDS011;3530;52.832;10.680;2024-02-21T15:41:35;4.63;;;3.97;;
6979;SDS011;3530;52.832;10.680;2024-02-21T15:44:21;7.28;;;4.57;;
6979;SDS011;3530;52.832;10.680;2024-02-21T15:47:06;4.85;;;3.97;;
6979;SDS011;3530;52.832;10.680;2024-02-21T15:49:52;6.53;;;4.45;;
6979;SDS011;3530;52.832;10.680;2024-02-21T15:52:38;4.63;;;4.22;;
6979;SDS011;3530;52.832;10.680;2024-02-21T15:55:24;7.57;;;5.90;;
6979;SDS011;3530;52.832;10.680;2024-02-21T15:58:09;8.75;;;5.60;;
6979;SDS011;3530;52.832;10.680;2024-02-21T16:00:55;7.05;;;5.60;;
6979;SDS011;3530;52.832;10.680;2024-02-21T16:03:41;12.23;;;9.95;;
6979;SDS011;3530;52.832;10.680;2024-02-21T16:06:26;8.85;;;4.63;;
6979;SDS011;3530;52.832;10.680;2024-02-21T16:09:13;6.85;;;5.30;;
6979;SDS011;3530;52.832;10.680;2024-02-21T16:12:00;5.88;;;4.28;;
6979;SDS011;3530;52.832;10.680;2024-02-21T16:14:50;7.85;;;4.70;;
6979;SDS011;3530;52.832;10.680;2024-02-21T16:17:36;5.80;;;5.10;;
6979;SDS011;3530;52.832;10.680;2024-02-21T16:20:22;6.68;;;5.80;;
6979;SDS011;3530;52.832;10.680;2024-02-21T16:23:07;10.18;;;5.88;;
6979;SDS011;3530;52.832;10.680;2024-02-21T16:25:53;9.25;;;4.90;;
6979;SDS011;3530;52.832;10.680;2024-02-21T16:28:39;8.65;;;5.65;;
6979;SDS011;3530;52.832;10.680;2024-02-21T16:31:25;7.78;;;5.03;;
6979;SDS011;3530;52.832;10.680;2024-02-21T16:34:10;10.30;;;5.85;;
6979;SDS011;3530;52.832;10.680;2024-02-21T16:36:56;5.82;;;5.22;;
6979;SDS011;3530;52.832;10.680;2024-02-21T16:39:44;5.38;;;4.82;;
6979;SDS011;3530;52.832;10.680;2024-02-21T16:42:30;6.20;;;5.28;;